ADDS METAR Data INFO
IDs: Format: Raw Decoded Include TAF

Data at: 1153 UTC 21 Jun 2018

KMQY 211056Z AUTO 19003KT 10SM BKN065 BKN075 OVC090 22/21 A2989 RMK AO2 SLP998 T02220211
KMQY 210956Z AUTO 00000KT 10SM SCT060 BKN080 OVC110 22/21 A2989 RMK AO2 RAB0857E01 SLP996 P0000 T02220211
KMQY 210856Z AUTO 00000KT 10SM OVC060 23/21 A2989 RMK AO2 LTG DSNT S SLP996 60000 T02280211 56008
KMQY 210756Z AUTO 19003KT 10SM FEW043 BKN070 OVC080 23/21 A2989 RMK AO2 RAB0657E21 SLP998 P0000 T02280206
KMQY 210656Z AUTO 21003KT 10SM OVC070 23/21 A2991 RMK AO2 RAB29E56 SLP004 P0000 T02330211
KMQY 210456Z AUTO 21003KT 10SM OVC110 26/22 A2993 RMK AO2 SLP006 T02560222
KMQY 210356Z AUTO 00000KT 10SM FEW120 26/22 A2993 RMK AO2 SLP005 T02560222
KMQY 210256Z AUTO 21004KT 10SM SCT110 26/22 A2993 RMK AO2 SLP004 T02560217 51008
KMQY 210156Z 00000KT 10SM CLR 27/22 A2992
KMQY 210056Z 22004KT 10SM SCT100 27/21 A2991 RMK AO2 SLP003 T02670206
KMQY 202356Z 25009KT 10SM CLR 28/21 A2990 RMK AO2 SLP000 T02780206 10294 20272 56011
KMQY 202256Z 26008KT 10SM CLR 28/22 A2991 RMK AO2 SLP006 T02830217
KMQY 202156Z 22007KT 10SM BKN100 28/21 A2992 RMK AO2 SLP008 T02830211
KMQY 202056Z 21006KT 10SM BKN095 OVC110 29/21 A2993 RMK AO2 SLP013 T02890211 58017
KMQY 201956Z 24012KT 10SM FEW085 OVC110 28/21 A2996 RMK AO2 SLP024 T02830211
KMQY 201856Z 25011G15KT 10SM BKN085 OVC110 28/21 A2997 RMK AO2 SLP028 T02830211
KMQY 201756Z 26007KT 10SM FEW040 SCT060 BKN095 27/22 A2999 RMK AO2 RAB21E43 SLP032 P0000 60000 T02720217 10300 20244 58003
KMQY 201656Z 26011KT 10SM FEW036 SCT043 OVC070 28/21 A2999 RMK AO2 SLP031 T02830211
KMQY 201556Z 28009KT 10SM FEW050 BKN110 29/21 A3000 RMK AO2 SLP030 T02940211
KMQY 201456Z 29006KT 10SM FEW050 FEW120 29/20 A3000 RMK AO2 SLP030 T02940200 58003
KMQY 201356Z 33004KT 10SM FEW100 28/20 A3000 RMK AO2 SLP035 T02830200
KMQY 201256Z 28005KT 10SM BKN100 26/19 A3000 RMK AO2 SLP037 T02610194
KMQY 201156Z 00000KT 10SM OVC090 24/21 A3000 RMK AO2 SLP038 60000 T02440211 10261 20211 53010
KMQY 201056Z 00000KT 10SM SCT095 22/21 A2999 RMK AO2 SLP035 T02170206
KMQY 200956Z 17003KT 10SM BKN100 23/21 A2998 RMK AO2 SLP025 T02280211
KMQY 200856Z 00000KT 10SM CLR 23/21 A2998 RMK AO2 SLP022 60000 T02330206 55006
KMQY 200756Z 00000KT 10SM FEW110 24/22 A2997 RMK AO2 RAE0658 SLP022 P0000 T02390217
KMQY 200656Z 00000KT 10SM -RA FEW110 24/22 A2999 RMK AO2 RAB47 SLP026 P0000 T02390217
KMQY 200556Z 00000KT 10SM CLR 26/21 A2999 RMK AO2 SLP028 T02610211 10300 20250 403330206 56005
KMQY 200456Z 00000KT 10SM CLR 26/22 A3000 RMK AO2 SLP030 T02560217
KMQY 200356Z 18003KT 10SM CLR 27/21 A3000 RMK AO2 SLP030 T02670211
KMQY 200256Z 23003KT 10SM CLR 27/21 A3001 RMK AO2 SLP035 T02720211 51008
KMQY 200156Z 25005KT 10SM CLR 27/21 A3000 RMK AO2 SLP033 T02720206
KMQY 200056Z 29008KT 10SM CLR 28/21 A3000 RMK AO2 SLP035 T02830206
KMQY 192356Z 29009KT 10SM CLR 30/20 A2999 RMK AO2 SLP032 9ACFT MSHP) T03000200 10333 20300 55002